Pagrindinis puslapis
METAR-TAF:

METAR-TAF

Oro uostai :

Hohenfels, Vokietija

platuma: 49-13N, ilguma: 011-50E, Aukštis: 442 m

Dabartinis oras

Ataskaita buvo paskelbta 18 minutes, ne 20:16 UTC
Vėjas 3 kt iš Pietryčių
Temperatūra 4°C
Drėgmė 93%
Slėgis 1014 hPa
Matomumas: 8000 m
Su prošvaistėmis ne aukštis 400 ft
rūkana

METAR: ETIH 272016Z AUTO 14003KT 8000 BR BKN004 04/03 A2994 RMK AO2 SLP154 $

Laikas: 21:34 (20:34 UTC)


TAF: trūkstamas

Orai ataskaitas ir orų prognozės (METAR, TAF).

turimą stotys yra geltonos ir raudonos taškus žemėlapyje.

Perkelti pele per norėdami pamatyti stoties vardą.

Tada spustelėkite, norėdami matyti oro stebėjimo ir prognozės.

Norėdami pakeisti žemėlapį: spustelėkite ant žalios mygtukų su juodo kryžiaus žemyn,; žalią mygtuką su brūkšneliu, jei norite nutolinti; arba žalių rodyklių gretimoms žemėlapius.


METAR-TAF: